Time;durP1;ratioP1;P1;durP2;ratioP2;P2;SDS_P1;SDS_P2;PMS_P1;PMS_P2;Temp;Humidity;BMP_temperature;BMP_pressure;BME280_temperature;BME280_humidity;BME280_pressure;Samples;Min_cycle;Max_cycle;Signal;HPM_P1;HPM_P2
2021/12/12 00:01:12;;;;;;;0.80;0.80;;;6.40;99.90;5.90;101836.00;;;;5014935;28;20167;-74
2021/12/12 00:03:52;;;;;;;0.77;0.77;;;6.40;99.90;6.00;101833.00;;;;5014741;28;20716;-75
2021/12/12 00:06:37;;;;;;;1.77;1.67;;;6.30;99.90;5.90;101832.00;;;;5014679;28;20278;-74
2021/12/12 00:09:28;;;;;;;9.83;2.20;;;6.40;99.90;6.10;101829.00;;;;5013891;28;20194;-75
2021/12/12 00:12:05;;;;;;;0.30;0.30;;;6.30;99.90;6.00;101827.00;;;;5014161;28;20215;-75
2021/12/12 00:14:36;;;;;;;14.90;1.77;;;6.30;99.90;6.00;101820.00;;;;5015422;28;20588;-75
2021/12/12 00:17:12;;;;;;;6.13;2.27;;;6.30;99.90;6.00;101819.00;;;;5030109;28;20607;-75
2021/12/12 00:19:46;;;;;;;1.27;1.07;;;6.30;99.90;6.00;101827.00;;;;5013347;28;20200;-77
2021/12/12 00:22:27;;;;;;;4.43;0.90;;;6.30;99.90;5.90;101829.00;;;;5014152;28;20183;-76
2021/12/12 00:24:59;;;;;;;0.70;0.70;;;6.30;99.90;6.00;101821.00;;;;5013561;28;20623;-76
2021/12/12 00:27:37;;;;;;;0.60;0.60;;;6.30;99.90;6.10;101814.00;;;;5014090;28;20214;-75
2021/12/12 00:30:09;;;;;;;0.30;0.30;;;6.40;99.90;6.10;101796.00;;;;5013443;28;20175;-76
2021/12/12 00:32:49;;;;;;;0.93;0.60;;;6.40;99.90;6.20;101815.00;;;;5013943;28;20233;-75
2021/12/12 00:35:26;;;;;;;4.23;3.00;;;6.40;99.90;6.00;101786.00;;;;5015215;28;20186;-74
2021/12/12 00:38:05;;;;;;;1.07;1.07;;;6.40;99.90;6.00;101809.00;;;;5013296;28;20200;-76
2021/12/12 00:40:47;;;;;;;1.70;0.73;;;6.40;99.90;6.10;101831.00;;;;5013860;28;20199;-74
2021/12/12 00:43:29;;;;;;;0.57;0.53;;;6.40;99.90;6.00;101733.00;;;;5013405;28;20538;-75
2021/12/12 00:46:08;;;;;;;1.17;1.13;;;6.30;99.90;6.40;101818.00;;;;5014003;28;20198;-75
2021/12/12 00:48:45;;;;;;;0.70;0.70;;;6.40;99.90;6.10;101812.00;;;;5013909;28;20173;-74
2021/12/12 00:51:30;;;;;;;0.63;0.63;;;6.40;99.90;6.10;101821.00;;;;5014235;28;20182;-74
2021/12/12 00:54:03;;;;;;;2.10;1.93;;;6.50;99.90;6.20;101804.00;;;;5012423;28;20212;-74
2021/12/12 00:56:35;;;;;;;1.50;1.40;;;6.50;99.90;6.10;101810.00;;;;5012742;28;20192;-75
2021/12/12 00:59:13;;;;;;;0.67;0.67;;;6.50;99.90;6.10;101815.00;;;;5013630;28;20174;-75
2021/12/12 01:01:55;;;;;;;1.53;1.33;;;6.40;99.90;6.20;101793.00;;;;5013634;28;20203;-74
2021/12/12 01:04:42;;;;;;;2.03;1.63;;;6.50;99.90;6.20;101798.00;;;;5013334;28;20186;-76
2021/12/12 01:07:20;;;;;;;0.33;0.33;;;6.50;99.90;6.10;101783.00;;;;5013843;28;20539;-75
2021/12/12 01:10:03;;;;;;;0.50;0.50;;;6.50;99.90;6.20;101811.00;;;;5013415;28;20213;-75
2021/12/12 01:12:40;;;;;;;1.17;1.07;;;6.50;99.90;6.30;101809.00;;;;5029839;28;20234;-75
2021/12/12 01:15:22;;;;;;;2.17;1.50;;;6.50;99.90;6.10;101798.00;;;;5011908;28;20188;-75
2021/12/12 01:18:07;;;;;;;0.53;0.53;;;6.50;99.90;6.30;101806.00;;;;5013663;28;20267;-75
2021/12/12 01:20:54;;;;;;;1.13;1.10;;;6.60;99.90;6.20;101788.00;;;;4997247;28;20186;-75
2021/12/12 01:24:23;;;;;;;17.27;3.20;;;6.50;99.90;6.00;101801.00;;;;5030049;28;20221;-75
2021/12/12 01:26:56;;;;;;;0.60;0.60;;;6.50;99.90;6.40;101781.00;;;;5010400;28;20643;-75
2021/12/12 01:29:36;;;;;;;0.60;0.60;;;6.50;99.90;6.20;101765.00;;;;5012705;28;20193;-75
2021/12/12 01:32:20;;;;;;;1.03;0.90;;;6.50;99.90;6.10;101795.00;;;;5013269;28;20213;-75
2021/12/12 01:34:52;;;;;;;1.33;1.23;;;6.50;99.90;6.20;101789.00;;;;5027759;28;20547;-74
2021/12/12 01:40:23;;;;;;;0.60;0.60;;;6.50;99.90;6.10;101797.00;;;;5013019;28;20201;-75
2021/12/12 01:43:02;;;;;;;0.67;0.67;;;6.50;99.90;6.20;101747.00;;;;5012458;28;20184;-75
2021/12/12 01:45:46;;;;;;;0.53;0.53;;;6.50;99.90;6.30;101788.00;;;;5012739;28;20179;-76
2021/12/12 01:48:37;;;;;;;0.50;0.50;;;6.50;99.90;6.20;101785.00;;;;5029066;28;20541;-75
2021/12/12 01:51:15;;;;;;;0.93;0.93;;;6.50;99.90;6.20;101771.00;;;;5013205;28;20179;-76
2021/12/12 01:54:09;;;;;;;1.70;1.60;;;6.60;99.90;6.20;101781.00;;;;5013016;28;20183;-76
2021/12/12 01:56:54;;;;;;;0.30;0.30;;;6.60;99.90;6.20;101787.00;;;;5012715;28;20661;-76
2021/12/12 01:59:33;;;;;;;1.30;1.20;;;6.60;99.90;6.30;101747.00;;;;5013287;28;20181;-77
2021/12/12 02:02:16;;;;;;;1.43;1.00;;;6.60;99.90;6.10;101795.00;;;;5012151;28;20276;-77
2021/12/12 02:04:52;;;;;;;1.27;0.93;;;6.60;99.90;6.30;101787.00;;;;5012474;28;20202;-77
2021/12/12 02:07:32;;;;;;;4.20;3.83;;;6.60;99.90;6.30;101673.00;;;;5012598;28;20183;-77
2021/12/12 02:10:11;;;;;;;0.60;0.60;;;6.60;99.90;6.50;101782.00;;;;5011969;28;20190;-77
2021/12/12 02:12:42;;;;;;;0.63;0.63;;;6.70;99.90;6.30;101738.00;;;;4995058;28;20215;-77
2021/12/12 02:15:13;;;;;;;0.73;0.73;;;6.70;99.90;6.30;101785.00;;;;5011129;28;20207;-77
2021/12/12 02:17:46;;;;;;;0.77;0.77;;;6.60;99.90;6.30;101781.00;;;;5012639;28;20185;-76
2021/12/12 02:20:43;;;;;;;3.30;2.13;;;6.60;99.90;6.20;101788.00;;;;5013155;28;20192;-75
2021/12/12 02:23:32;;;;;;;0.60;0.60;;;6.60;99.90;6.40;101786.00;;;;5012578;28;20211;-74
2021/12/12 02:37:36;;;;;;;1.00;0.60;;;6.70;99.90;6.50;101783.00;;;;5012018;28;20220;-77
2021/12/12 02:40:27;;;;;;;3.43;3.23;;;6.80;99.90;6.50;101773.00;;;;5012380;28;20225;-77
2021/12/12 02:43:04;;;;;;;3.77;2.63;;;6.80;99.90;6.40;101761.00;;;;5011858;28;20195;-78
2021/12/12 02:45:41;;;;;;;0.30;0.30;;;6.80;99.90;6.30;101784.00;;;;5011535;28;20188;-77
2021/12/12 02:48:20;;;;;;;0.77;0.77;;;6.80;99.90;6.40;101786.00;;;;5012495;28;20241;-77
2021/12/12 02:50:59;;;;;;;0.67;0.67;;;6.80;99.90;6.40;101789.00;;;;5012033;28;20586;-77
2021/12/12 02:53:33;;;;;;;0.30;0.30;;;6.80;99.90;6.40;101737.00;;;;5012487;28;20248;-77
2021/12/12 02:56:33;;;;;;;2.83;2.40;;;6.80;99.90;6.40;101794.00;;;;5010894;28;20279;-78
2021/12/12 02:59:17;;;;;;;0.40;0.40;;;6.90;99.90;6.80;101800.00;;;;5044678;28;20281;-77
2021/12/12 03:02:00;;;;;;;0.40;0.40;;;6.90;99.90;6.50;101803.00;;;;5011944;28;20186;-79
2021/12/12 03:04:33;;;;;;;2.00;0.83;;;6.90;99.90;6.60;101801.00;;;;5011302;28;20188;-79
2021/12/12 03:07:12;;;;;;;0.50;0.50;;;6.90;99.90;6.70;101801.00;;;;5011870;28;20165;-78
2021/12/12 03:09:56;;;;;;;1.50;1.40;;;6.90;99.90;6.60;101765.00;;;;4995770;28;20232;-77
2021/12/12 03:12:33;;;;;;;0.50;0.50;;;6.90;99.90;6.60;101797.00;;;;5011530;28;20564;-77
2021/12/12 03:15:27;;;;;;;1.50;1.40;;;6.90;99.90;6.60;101791.00;;;;5012150;28;20171;-77
2021/12/12 03:18:17;;;;;;;1.17;0.83;;;7.00;99.90;6.50;101767.00;;;;4995259;28;20193;-78
2021/12/12 03:20:58;;;;;;;1.43;1.27;;;6.90;99.90;6.70;101799.00;;;;5015164;28;20189;-79
2021/12/12 03:23:56;;;;;;;1.63;1.63;;;6.90;99.90;6.90;101752.00;;;;5015510;28;20622;-79
2021/12/12 03:26:32;;;;;;;0.50;0.50;;;7.00;99.90;7.00;101800.00;;;;5016507;28;20216;-75
2021/12/12 03:29:12;;;;;;;0.60;0.60;;;7.20;99.90;7.00;101795.00;;;;5015959;28;20555;-75
2021/12/12 03:32:04;;;;;;;1.13;1.13;;;7.20;99.90;7.00;101799.00;;;;5015122;28;20674;-76
2021/12/12 03:34:42;;;;;;;0.30;0.30;;;7.20;99.90;7.10;101782.00;;;;5015257;28;20193;-75
2021/12/12 03:37:21;;;;;;;0.60;0.60;;;7.20;99.90;7.00;101790.00;;;;5016658;28;20163;-75
2021/12/12 03:39:59;;;;;;;1.97;1.63;;;7.20;99.90;6.80;101794.00;;;;5015379;28;20159;-74
2021/12/12 03:42:35;;;;;;;1.07;0.70;;;7.10;99.90;6.90;101808.00;;;;5014134;28;20202;-74
2021/12/12 03:45:15;;;;;;;0.60;0.60;;;7.20;99.90;6.80;101806.00;;;;5015369;28;20163;-73
2021/12/12 03:47:54;;;;;;;1.67;1.57;;;7.10;99.90;6.70;101801.00;;;;5014937;28;20180;-74
2021/12/12 03:50:36;;;;;;;1.07;1.07;;;7.10;99.90;6.80;101796.00;;;;5015641;28;20214;-73
2021/12/12 03:53:10;;;;;;;0.87;0.87;;;7.10;99.90;6.80;101801.00;;;;5013709;28;20230;-73
2021/12/12 03:55:47;;;;;;;1.73;1.63;;;7.10;99.90;6.70;101754.00;;;;5015257;28;20548;-72
2021/12/12 03:58:13;;;;;;;0.83;0.60;;;7.10;99.90;6.60;101760.00;;;;5014194;28;20276;-72
2021/12/12 04:01:14;;;;;;;0.73;0.73;;;7.00;99.90;6.80;101796.00;;;;5014995;28;20228;-72
2021/12/12 04:03:51;;;;;;;1.03;1.00;;;7.10;99.90;6.80;101791.00;;;;5014901;28;20262;-72
2021/12/12 04:06:23;;;;;;;0.47;0.47;;;7.10;99.90;6.80;101793.00;;;;5014075;28;20269;-72
2021/12/12 04:08:54;;;;;;;0.37;0.37;;;7.10;99.90;6.80;101762.00;;;;5015370;28;20229;-72
2021/12/12 04:11:38;;;;;;;0.40;0.40;;;7.10;99.90;6.80;101782.00;;;;5014311;28;20249;-72
2021/12/12 04:14:12;;;;;;;1.20;1.20;;;7.10;99.90;6.90;101781.00;;;;5014407;28;20640;-72
2021/12/12 04:16:51;;;;;;;1.33;0.87;;;7.20;99.90;6.70;101783.00;;;;5014096;28;20188;-72
2021/12/12 04:19:30;;;;;;;2.93;2.03;;;7.10;99.90;6.80;101789.00;;;;5014342;28;20624;-72
2021/12/12 04:22:10;;;;;;;0.90;0.90;;;7.20;99.90;6.80;101780.00;;;;5014225;28;20186;-72
2021/12/12 04:24:53;;;;;;;2.13;2.03;;;7.10;99.90;7.00;101784.00;;;;5013915;28;20571;-72
2021/12/12 04:27:25;;;;;;;2.47;0.87;;;7.20;99.90;6.90;101774.00;;;;5014208;28;20185;-73
2021/12/12 04:30:00;;;;;;;0.40;0.40;;;7.20;99.90;6.90;101750.00;;;;5014280;28;20269;-73
2021/12/12 04:32:33;;;;;;;2.07;1.90;;;7.20;99.90;7.00;101767.00;;;;5013854;28;20804;-72
2021/12/12 04:35:22;;;;;;;1.87;1.33;;;7.20;99.90;6.80;101770.00;;;;5013749;28;20212;-71
2021/12/12 04:37:55;;;;;;;1.13;0.70;;;7.20;99.90;6.70;101764.00;;;;5015304;28;20698;-72
2021/12/12 04:40:30;;;;;;;1.90;1.80;;;7.20;99.90;6.80;101771.00;;;;5013834;28;20269;-74
2021/12/12 04:43:08;;;;;;;1.43;1.33;;;7.20;99.90;6.90;101776.00;;;;5012925;28;20258;-73
2021/12/12 04:46:04;;;;;;;2.57;2.30;;;7.30;99.90;7.00;101752.00;;;;5014293;28;20206;-75
2021/12/12 04:52:00;;;;;;;1.70;1.07;;;7.30;99.90;6.90;101772.00;;;;5013855;28;20226;-73
2021/12/12 04:54:48;;;;;;;0.87;0.77;;;7.30;99.90;6.90;101769.00;;;;5013074;28;20179;-73
2021/12/12 04:57:35;;;;;;;0.47;0.47;;;7.30;99.90;6.90;101789.00;;;;5013418;28;20672;-73
2021/12/12 05:00:19;;;;;;;3.70;1.63;;;7.30;99.90;7.00;101786.00;;;;5013850;28;20202;-73
2021/12/12 05:03:12;;;;;;;0.80;0.70;;;7.30;99.90;7.10;101798.00;;;;5029848;28;20650;-72
2021/12/12 05:06:10;;;;;;;0.77;0.77;;;7.40;99.90;7.20;101753.00;;;;5012918;28;20182;-73
2021/12/12 05:08:52;;;;;;;3.03;2.00;;;7.50;99.90;7.30;101804.00;;;;5042636;28;20197;-71
2021/12/12 05:11:45;;;;;;;2.03;1.93;;;7.50;99.90;7.40;101798.00;;;;5013598;28;20183;-74
2021/12/12 05:14:25;;;;;;;1.60;1.33;;;7.50;99.90;7.20;101803.00;;;;5013689;28;20199;-74
2021/12/12 05:17:11;;;;;;;1.80;1.70;;;7.50;99.90;7.30;101803.00;;;;4997326;28;20274;-74
2021/12/12 05:19:59;;;;;;;1.97;1.83;;;7.60;99.90;7.30;101768.00;;;;5012840;28;20182;-74
2021/12/12 05:22:46;;;;;;;0.87;0.87;;;7.50;99.90;7.20;101804.00;;;;5013126;28;20184;-74
2021/12/12 05:25:32;;;;;;;1.77;1.67;;;7.50;99.90;7.20;101814.00;;;;5012769;28;20164;-73
2021/12/12 05:28:11;;;;;;;0.90;0.90;;;7.50;99.90;7.20;101804.00;;;;5013503;28;20179;-72
2021/12/12 05:30:48;;;;;;;1.10;1.10;;;7.50;99.90;7.20;101807.00;;;;5029538;28;20190;-73
2021/12/12 05:33:26;;;;;;;1.50;1.50;;;7.50;99.90;7.50;101815.00;;;;5012784;28;20207;-75
2021/12/12 05:36:18;;;;;;;3.17;2.93;;;7.60;99.90;7.40;101730.00;;;;5012645;28;20262;-74
2021/12/12 05:38:58;;;;;;;1.23;1.20;;;7.60;99.90;7.40;101826.00;;;;5028928;28;20556;-74
2021/12/12 05:41:35;;;;;;;0.60;0.50;;;7.60;99.90;7.30;101822.00;;;;5028046;28;20229;-74
2021/12/12 05:44:07;;;;;;;2.77;2.47;;;7.60;99.90;7.20;101817.00;;;;5012805;28;20196;-72
2021/12/12 05:46:39;;;;;;;1.77;0.60;;;7.50;99.90;7.20;101820.00;;;;5012933;28;20176;-72
2021/12/12 05:49:16;;;;;;;2.00;1.73;;;7.50;99.90;7.10;101819.00;;;;5012826;28;20190;-72
2021/12/12 05:51:44;;;;;;;2.27;2.07;;;7.50;99.90;7.30;101821.00;;;;5012789;28;20235;-72
2021/12/12 05:54:28;;;;;;;0.63;0.63;;;7.60;99.90;7.30;101840.00;;;;5010953;28;20194;-72
2021/12/12 05:57:08;;;;;;;1.07;1.07;;;7.60;99.90;7.30;101841.00;;;;5013019;28;20175;-72
2021/12/12 05:59:52;;;;;;;0.30;0.30;;;7.60;99.90;7.50;101853.00;;;;5012997;28;20184;-73
2021/12/12 06:02:26;;;;;;;0.60;0.60;;;7.70;99.90;7.60;101837.00;;;;5012140;28;20175;-74
2021/12/12 06:04:59;;;;;;;0.37;0.37;;;7.70;99.90;8.20;101858.00;;;;5012072;28;20189;-74
2021/12/12 06:07:34;;;;;;;1.87;0.83;;;7.90;99.90;7.60;101846.00;;;;5012447;28;20189;-74
2021/12/12 06:10:10;;;;;;;1.37;0.50;;;7.80;99.90;7.40;101849.00;;;;5012114;28;20198;-73
2021/12/12 06:12:47;;;;;;;3.10;0.67;;;7.70;99.90;7.40;101852.00;;;;5010871;28;20215;-73
2021/12/12 06:15:27;;;;;;;1.77;1.67;;;7.70;99.90;7.30;101862.00;;;;5012578;28;20176;-73
2021/12/12 06:18:07;;;;;;;4.77;3.07;;;7.60;99.90;7.30;101822.00;;;;5011494;28;20625;-74
2021/12/12 06:20:47;;;;;;;3.07;2.17;;;7.60;99.90;7.20;101840.00;;;;5011729;28;20312;-75
2021/12/12 06:23:19;;;;;;;2.63;2.23;;;7.60;99.90;7.40;101847.00;;;;5011883;28;20190;-73
2021/12/12 06:25:58;;;;;;;11.43;9.17;;;7.60;99.90;7.30;101842.00;;;;5012217;28;20605;-73
2021/12/12 06:28:39;;;;;;;2.07;1.87;;;7.70;99.90;7.20;101870.00;;;;5013074;28;20193;-74
2021/12/12 06:31:16;;;;;;;4.70;1.47;;;7.60;99.90;7.30;101884.00;;;;5012971;28;20183;-74
2021/12/12 06:33:54;;;;;;;3.33;2.37;;;7.60;99.90;7.30;101865.00;;;;4995346;28;20210;-74
2021/12/12 06:36:32;;;;;;;2.73;2.47;;;7.70;99.90;7.40;101863.00;;;;5012428;28;20237;-74
2021/12/12 06:39:07;;;;;;;22.50;2.10;;;7.60;99.90;7.20;101869.00;;;;5012366;28;20175;-76
2021/12/12 06:41:50;;;;;;;0.83;0.77;;;7.60;99.90;7.20;101829.00;;;;5013473;28;20172;-76
2021/12/12 06:44:25;;;;;;;1.53;1.43;;;7.60;99.90;7.30;101871.00;;;;5012020;28;20210;-76
2021/12/12 06:46:54;;;;;;;2.60;1.80;;;7.60;99.90;7.20;101888.00;;;;5011825;28;20208;-76
2021/12/12 06:49:30;;;;;;;0.40;0.40;;;7.70;99.90;7.50;101876.00;;;;5011649;28;20183;-77
2021/12/12 06:52:05;;;;;;;1.40;1.30;;;7.70;99.90;7.40;101882.00;;;;5012229;28;20199;-78
2021/12/12 06:54:35;;;;;;;1.47;1.43;;;7.70;99.90;7.40;101862.00;;;;5015279;28;20191;-77
2021/12/12 06:57:09;;;;;;;2.40;2.20;;;7.70;99.90;7.60;101828.00;;;;5015814;28;20183;-77
2021/12/12 06:59:45;;;;;;;0.90;0.90;;;7.80;99.90;7.60;101874.00;;;;5016086;28;20240;-76
2021/12/12 07:02:27;;;;;;;2.73;1.20;;;7.80;99.90;7.30;101879.00;;;;5015165;28;20259;-78
2021/12/12 07:05:01;;;;;;;6.10;2.57;;;7.70;99.90;7.40;101887.00;;;;5016430;28;20183;-77
2021/12/12 07:07:33;;;;;;;1.77;1.67;;;7.70;99.90;7.50;101882.00;;;;5016178;28;20179;-77
2021/12/12 07:10:11;;;;;;;0.50;0.50;;;7.70;99.90;7.50;101881.00;;;;5016039;28;20671;-77
2021/12/12 07:12:54;;;;;;;11.67;10.63;;;7.70;99.90;7.60;101876.00;;;;5014948;28;20211;-76
2021/12/12 07:15:32;;;;;;;5.40;3.10;;;7.80;99.90;7.50;101878.00;;;;5016156;28;20509;-74
2021/12/12 07:18:12;;;;;;;0.67;0.67;;;7.80;99.90;7.40;101886.00;;;;5015693;28;20633;-75
2021/12/12 07:20:45;;;;;;;2.70;2.50;;;7.80;99.90;7.40;101874.00;;;;5015569;28;20182;-75
2021/12/12 07:23:19;;;;;;;0.30;0.30;;;7.80;99.90;7.60;101894.00;;;;5014876;28;20184;-74
2021/12/12 07:25:55;;;;;;;3.80;3.07;;;7.80;99.90;7.50;101872.00;;;;5015134;28;20178;-74
2021/12/12 07:28:30;;;;;;;1.43;1.43;;;7.80;99.90;7.70;101890.00;;;;5015023;28;20635;-76
2021/12/12 07:31:15;;;;;;;2.33;1.33;;;7.90;99.90;7.60;101855.00;;;;5015115;28;20546;-74
2021/12/12 07:33:56;;;;;;;0.50;0.50;;;7.90;99.90;7.80;101888.00;;;;5015478;28;20624;-75
2021/12/12 07:36:53;;;;;;;2.40;1.97;;;7.90;99.90;7.50;101875.00;;;;5014430;28;20183;-75
2021/12/12 07:39:22;;;;;;;4.17;3.33;;;7.90;99.90;7.50;101886.00;;;;5030599;28;20183;-76
2021/12/12 07:41:57;;;;;;;0.97;0.97;;;7.90;99.90;7.90;101873.00;;;;5011305;28;20660;-75
2021/12/12 07:44:36;;;;;;;2.70;1.30;;;8.00;99.90;7.70;101906.00;;;;4995249;28;20173;-73
2021/12/12 07:47:17;;;;;;;0.93;0.73;;;7.90;99.90;7.70;101907.00;;;;5011849;28;20189;-75
2021/12/12 07:49:51;;;;;;;0.50;0.50;;;8.00;99.90;8.00;101878.00;;;;5011815;28;20214;-77
2021/12/12 07:52:30;;;;;;;3.80;3.60;;;8.00;99.90;8.00;101910.00;;;;5011026;28;20208;-77
2021/12/12 07:55:05;;;;;;;0.30;0.30;;;8.10;99.90;8.00;101857.00;;;;5011633;28;20192;-76
2021/12/12 07:57:41;;;;;;;1.70;1.53;;;8.10;99.90;7.70;101908.00;;;;5011907;28;20282;-76
2021/12/12 08:00:26;;;;;;;0.90;0.90;;;8.00;99.90;8.00;101916.00;;;;5010282;28;20250;-79
2021/12/12 08:03:01;;;;;;;1.27;1.23;;;8.10;99.90;7.80;101914.00;;;;4995099;28;20320;-78
2021/12/12 08:05:40;;;;;;;1.73;1.63;;;8.00;99.90;7.70;101924.00;;;;5009777;28;20196;-77
2021/12/12 08:08:18;;;;;;;2.47;1.17;;;8.10;99.90;7.90;101914.00;;;;5011085;28;20275;-79
2021/12/12 08:10:56;;;;;;;0.73;0.73;;;8.00;99.90;8.10;101914.00;;;;5011212;28;20184;-79
2021/12/12 08:13:37;;;;;;;1.77;1.67;;;8.20;99.90;8.10;101918.00;;;;5009857;28;20232;-80
2021/12/12 08:16:14;;;;;;;0.83;0.73;;;8.20;99.90;7.70;101932.00;;;;4995515;28;20172;-80
2021/12/12 08:18:48;;;;;;;1.90;1.73;;;8.10;99.90;7.60;101939.00;;;;5010979;28;20542;-80
2021/12/12 08:21:28;;;;;;;1.53;1.43;;;8.10;99.90;8.00;101913.00;;;;5011091;28;20190;-80
2021/12/12 08:24:06;;;;;;;2.20;2.00;;;8.20;99.90;7.80;101954.00;;;;5010371;28;20203;-77
2021/12/12 08:26:43;;;;;;;0.60;0.60;;;8.20;99.90;8.00;101954.00;;;;5010863;28;20231;-77
2021/12/12 08:29:22;;;;;;;1.80;1.70;;;8.20;99.90;8.20;101941.00;;;;5010711;28;20203;-79
2021/12/12 08:31:57;;;;;;;0.63;0.63;;;8.30;99.90;8.20;101944.00;;;;5009762;28;20578;-80
2021/12/12 08:34:34;;;;;;;5.53;2.33;;;8.30;99.90;8.00;101940.00;;;;4995678;28;20263;-79
2021/12/12 08:37:09;;;;;;;1.17;1.17;;;8.30;99.90;8.10;101950.00;;;;5009640;28;20184;-79
2021/12/12 08:39:43;;;;;;;4.67;3.90;;;8.30;99.90;8.30;101909.00;;;;4977828;28;20329;-78
2021/12/12 08:42:26;;;;;;;0.83;0.83;;;8.50;99.90;8.30;101948.00;;;;5010624;28;20199;-78
2021/12/12 08:45:07;;;;;;;0.80;0.80;;;8.50;99.90;8.50;101951.00;;;;5009281;28;20612;-76
2021/12/12 08:47:42;;;;;;;0.57;0.57;;;8.40;99.90;8.60;101955.00;;;;5010792;28;20282;-78
2021/12/12 08:50:18;;;;;;;0.67;0.67;;;8.70;99.90;8.80;101921.00;;;;5010999;28;20538;-78
2021/12/12 08:52:55;;;;;;;1.13;1.13;;;8.70;99.90;8.70;101932.00;;;;4994418;28;20210;-77
2021/12/12 08:55:38;;;;;;;2.27;1.00;;;8.70;99.90;8.60;101944.00;;;;5010196;28;20332;-78
2021/12/12 08:58:15;;;;;;;2.77;2.67;;;8.60;99.90;8.60;101963.00;;;;5010164;28;20183;-79
2021/12/12 09:01:11;;;;;;;22.67;2.97;;;8.70;99.90;8.50;101957.00;;;;4992853;28;20195;-78
2021/12/12 09:04:12;;;;;;;8.80;7.40;;;8.70;99.90;8.90;101955.00;;;;5010249;28;20190;-79
2021/12/12 09:06:58;;;;;;;0.40;0.40;;;8.80;99.90;9.10;101947.00;;;;4977707;28;20192;-79
2021/12/12 09:09:41;;;;;;;2.40;2.00;;;9.00;99.90;8.40;101955.00;;;;5010558;28;20539;-73
2021/12/12 09:12:35;;;;;;;0.40;0.40;;;8.70;99.90;8.70;101970.00;;;;5008777;28;20204;-75
2021/12/12 09:15:22;;;;;;;11.23;1.70;;;8.70;99.90;8.70;101979.00;;;;5009466;28;20185;-75
2021/12/12 09:18:11;;;;;;;1.00;1.00;;;8.80;99.90;8.90;101979.00;;;;5009605;28;20184;-74
2021/12/12 09:21:07;;;;;;;1.07;1.03;;;8.90;99.90;8.80;101972.00;;;;5010347;28;20577;-74
2021/12/12 09:24:10;;;;;;;1.17;1.07;;;8.90;99.90;8.60;101952.00;;;;5008924;28;20654;-74
2021/12/12 09:26:50;;;;;;;0.40;0.40;;;8.70;99.90;8.60;101999.00;;;;5009133;28;20195;-70
2021/12/12 09:29:38;;;;;;;0.40;0.40;;;8.80;99.90;8.50;101950.00;;;;4993766;28;20559;-71
2021/12/12 09:32:24;;;;;;;0.50;0.50;;;8.70;99.90;8.70;102006.00;;;;4992478;28;20289;-80
2021/12/12 09:35:07;;;;;;;0.40;0.40;;;8.80;99.90;8.80;101970.00;;;;5009829;28;20286;-80
2021/12/12 09:37:49;;;;;;;1.73;1.23;;;8.80;99.90;8.50;102010.00;;;;5009964;28;20260;-80
2021/12/12 09:40:56;;;;;;;2.30;2.07;;;8.80;99.90;8.50;101963.00;;;;5015512;28;20191;-80
2021/12/12 09:43:50;;;;;;;1.57;1.53;;;8.80;99.90;8.50;102003.00;;;;5005426;28;20203;-80
2021/12/12 09:46:41;;;;;;;1.10;1.00;;;8.80;99.90;8.50;102005.00;;;;5020976;28;20291;-80
2021/12/12 09:53:06;;;;;;;1.40;1.30;;;8.80;99.90;8.50;102002.00;;;;5019158;28;20277;-80
2021/12/12 09:56:18;;;;;;;0.97;0.97;;;8.80;99.90;8.60;102012.00;;;;5003114;28;20191;-80
2021/12/12 09:59:08;;;;;;;1.93;1.83;;;8.80;99.90;8.60;101995.00;;;;5011613;28;20180;-80
2021/12/12 10:02:08;;;;;;;0.93;0.93;;;8.80;99.90;8.60;102007.00;;;;5005160;28;20198;-79
2021/12/12 10:05:02;;;;;;;0.30;0.30;;;8.80;99.90;8.80;102011.00;;;;5013858;28;20538;-78
2021/12/12 10:07:58;;;;;;;3.03;1.53;;;8.90;99.90;8.70;101999.00;;;;5031327;28;20194;-78
2021/12/12 10:10:56;;;;;;;4.13;3.00;;;8.90;99.90;8.80;102007.00;;;;5015690;28;20645;-78
2021/12/12 10:13:44;;;;;;;1.50;1.50;;;8.90;99.90;8.90;101966.00;;;;5032122;28;20253;-78
2021/12/12 10:16:34;;;;;;;1.57;1.57;;;9.00;99.90;8.90;102009.00;;;;5015678;28;20206;-78
2021/12/12 10:19:30;;;;;;;1.67;1.57;;;9.00;99.90;8.80;102012.00;;;;5015785;28;20602;-79
2021/12/12 10:33:50;;;;;;;0.40;0.40;;;8.90;99.90;8.80;102019.00;;;;5111268;27;20969;-81
2021/12/12 10:36:46;;;;;;;0.37;0.37;;;9.00;99.90;8.90;102030.00;;;;5109008;28;20665;-80
2021/12/12 10:40:12;;;;;;;1.03;1.03;;;9.00;99.90;9.10;102028.00;;;;5099610;28;20194;-70
2021/12/12 10:42:54;;;;;;;0.30;0.30;;;9.20;99.90;9.60;102021.00;;;;5070956;28;20228;-69
2021/12/12 10:45:36;;;;;;;0.43;0.43;;;9.40;99.90;9.80;102030.00;;;;5089319;28;20201;-70
2021/12/12 10:48:21;;;;;;;0.60;0.60;;;9.60;99.90;9.70;102031.00;;;;5089347;28;20183;-77
2021/12/12 10:51:42;;;;;;;1.73;1.63;;;9.50;99.90;9.10;101985.00;;;;5089213;28;20281;-78
2021/12/12 10:54:19;;;;;;;2.93;1.53;;;9.40;99.90;9.20;101993.00;;;;5051248;28;20192;-79
2021/12/12 10:57:03;;;;;;;1.73;1.63;;;9.40;99.90;9.70;102021.00;;;;5030983;28;20184;-79
2021/12/12 10:59:44;;;;;;;1.00;0.83;;;9.60;99.90;9.50;102029.00;;;;5080845;28;20251;-79
2021/12/12 11:02:24;;;;;;;0.60;0.60;;;9.60;99.90;10.20;101987.00;;;;5109133;28;20191;-78
2021/12/12 11:05:12;;;;;;;0.40;0.40;;;9.80;99.90;10.20;102016.00;;;;5084626;28;20523;-77
2021/12/12 11:07:58;;;;;;;1.17;1.17;;;9.90;99.90;10.60;102027.00;;;;5070036;28;20156;-77
2021/12/12 11:10:45;;;;;;;0.47;0.47;;;10.20;99.90;10.30;102018.00;;;;5068639;28;20264;-79
2021/12/12 11:13:22;;;;;;;0.60;0.60;;;10.10;99.90;10.80;102012.00;;;;5068810;28;20204;-78
2021/12/12 11:16:17;;;;;;;0.80;0.80;;;10.40;99.90;10.30;102018.00;;;;5051920;28;20191;-79
2021/12/12 11:18:58;;;;;;;1.53;1.37;;;10.30;99.90;10.40;102020.00;;;;5077977;28;20208;-80
2021/12/12 11:21:32;;;;;;;0.50;0.50;;;10.20;99.90;10.80;102011.00;;;;5088024;28;20212;-77
2021/12/12 11:24:48;;;;;;;0.50;0.50;;;10.40;99.90;10.70;102016.00;;;;5087878;28;20640;-74
2021/12/12 11:27:39;;;;;;;1.50;0.97;;;10.50;99.90;10.40;102014.00;;;;5070198;28;20184;-80
2021/12/12 11:30:29;;;;;;;0.50;0.50;;;10.50;99.90;10.80;102014.00;;;;5088096;28;20191;-80
2021/12/12 11:33:09;;;;;;;0.60;0.60;;;10.50;99.90;10.60;102014.00;;;;5104754;28;20220;-78
2021/12/12 11:35:45;;;;;;;3.53;3.23;;;10.60;99.90;10.30;102005.00;;;;5096851;28;20560;-78
2021/12/12 11:38:38;;;;;;;1.50;1.50;;;10.50;99.90;10.40;102023.00;;;;5070968;28;20199;-77
2021/12/12 11:42:01;;;;;;;0.47;0.47;;;10.30;99.90;10.50;102028.00;;;;5089322;28;20171;-77
2021/12/12 11:44:43;;;;;;;0.80;0.73;;;10.40;99.90;10.20;102017.00;;;;5075292;28;20195;-77
2021/12/12 11:47:45;;;;;;;0.53;0.53;;;10.40;99.90;10.40;102026.00;;;;5074631;28;20279;-77
2021/12/12 11:50:43;;;;;;;0.93;0.87;;;10.40;99.90;10.50;102019.00;;;;5075275;28;20169;-77
2021/12/12 11:53:43;;;;;;;1.33;1.33;;;10.50;99.90;10.90;101992.00;;;;5074071;28;20562;-77
2021/12/12 11:56:49;;;;;;;6.07;5.03;;;10.60;99.90;10.80;102036.00;;;;5074154;28;20648;-75
2021/12/12 11:59:31;;;;;;;0.50;0.50;;;10.70;99.90;11.10;102023.00;;;;5073177;28;20200;-76
2021/12/12 12:02:35;;;;;;;1.03;1.03;;;10.80;99.90;11.10;102020.00;;;;5073772;28;20186;-75
2021/12/12 12:05:54;;;;;;;1.73;1.70;;;10.90;99.90;11.10;102025.00;;;;5074454;28;20227;-74
2021/12/12 12:08:35;;;;;;;2.43;2.03;;;10.80;99.90;10.80;102036.00;;;;5061662;28;20189;-75
2021/12/12 12:11:51;;;;;;;2.90;2.70;;;10.80;99.90;10.40;102018.00;;;;5074161;28;20188;-76
2021/12/12 12:14:35;;;;;;;2.73;2.53;;;10.60;99.90;10.40;102046.00;;;;5057455;28;20184;-77
2021/12/12 12:17:23;;;;;;;0.80;0.80;;;10.50;99.90;10.40;102046.00;;;;5057007;28;20201;-76
2021/12/12 12:20:29;;;;;;;2.23;2.03;;;10.60;99.90;10.80;102045.00;;;;5056935;28;20190;-77
2021/12/12 12:23:32;;;;;;;1.57;1.47;;;10.70;99.90;11.10;102000.00;;;;5075259;28;20273;-77
2021/12/12 12:29:32;;;;;;;2.50;2.33;;;10.70;99.90;10.50;102019.00;;;;5073754;28;20552;-76
2021/12/12 12:32:54;;;;;;;1.53;0.60;;;10.60;99.90;10.90;102043.00;;;;5065246;28;20290;-77
2021/12/12 12:36:17;;;;;;;0.83;0.83;;;10.80;99.90;10.80;102056.00;;;;5074865;28;20191;-76
2021/12/12 12:39:43;;;;;;;0.50;0.50;;;10.80;99.90;10.60;102054.00;;;;5073425;28;20656;-76
2021/12/12 12:43:20;;;;;;;1.20;0.77;;;10.70;99.90;10.50;102059.00;;;;5033408;28;20198;-77
2021/12/12 12:46:11;;;;;;;1.30;1.10;;;10.70;99.90;10.60;102061.00;;;;5074821;28;20544;-76
2021/12/12 12:48:48;;;;;;;3.17;2.90;;;10.70;99.90;10.50;102062.00;;;;5073083;28;20187;-77